Terminal Aerodrome Forecast
Issued by NWS

Home | Current Version | Previous Version | Text Only | Print | Product List | Glossary On
Versions: 1 2 3 4 5 6 7 8 9 10 11 12 13
597
FTUS44 KLZK 010531
TAFHRO
TAF
KHRO 010531Z 0106/0206 29003KT P6SM SCT250
     FM011500 30005KT P6SM SCT050
     FM020000 35003KT P6SM SCT250=

USA.gov is the U.S. government's official web portal to all federal, state and local government web resources and services.